createdAt,value
2023-04-28T00:00:50.023Z,100364.44
2023-04-28T00:01:52.396Z,100361.67
2023-04-28T00:02:54.651Z,100364.01
2023-04-28T00:03:57.568Z,100361.67
2023-04-28T00:05:00.659Z,100364.01
2023-04-28T00:06:05.157Z,100358.05
2023-04-28T00:07:07.294Z,100355.72
2023-04-28T00:08:09.267Z,100368.76
2023-04-28T00:09:11.417Z,100356.16
2023-04-28T00:10:15.448Z,100358.91
2023-04-28T00:11:18.640Z,100354.95
2023-04-28T00:12:20.635Z,100367.98
2023-04-28T00:13:23.273Z,100357.70
2023-04-28T00:14:25.270Z,100355.37
2023-04-28T00:15:27.435Z,100357.36
2023-04-28T00:16:30.648Z,100350.29
2023-04-28T00:17:33.269Z,100364.44
2023-04-28T00:18:35.991Z,100356.94
2023-04-28T00:19:38.059Z,100358.48
2023-04-28T00:20:40.216Z,100356.50
2023-04-28T00:21:42.224Z,100352.53
2023-04-28T00:22:44.284Z,100354.86
2023-04-28T00:23:46.433Z,100360.38
2023-04-28T00:24:48.506Z,100363.14
2023-04-28T00:25:51.991Z,100362.37
2023-04-28T00:26:55.024Z,100367.12
2023-04-28T00:27:57.388Z,100367.12
2023-04-28T00:28:59.583Z,100367.98
2023-04-28T00:30:02.696Z,100365.22
2023-04-28T00:31:11.643Z,100372.73
2023-04-28T00:32:14.126Z,100375.92
2023-04-28T00:33:16.380Z,100376.70
2023-04-28T00:34:18.675Z,100380.23
2023-04-28T00:35:24.672Z,100379.80
2023-04-28T00:36:26.910Z,100371.52
2023-04-28T00:37:29.788Z,100377.05
2023-04-28T00:38:32.019Z,100375.92
2023-04-28T00:39:34.115Z,100370.83
2023-04-28T00:40:37.844Z,100373.59
2023-04-28T00:41:41.810Z,100377.13
2023-04-28T00:42:44.047Z,100370.05
2023-04-28T00:43:49.852Z,100376.78
2023-04-28T00:44:53.077Z,100372.47
2023-04-28T00:45:56.232Z,100373.67
2023-04-28T00:46:59.052Z,100373.67
2023-04-28T00:48:01.416Z,100372.13
2023-04-28T00:49:03.833Z,100377.22
2023-04-28T00:50:10.579Z,100383.52
2023-04-28T00:51:14.979Z,100377.98
2023-04-28T00:52:17.303Z,100381.09
2023-04-28T00:53:19.612Z,100380.66
2023-04-28T00:54:21.929Z,100385.41
2023-04-28T00:55:24.256Z,100387.75
2023-04-28T00:56:28.173Z,100384.98
2023-04-28T00:57:31.100Z,100386.53
2023-04-28T00:58:35.135Z,100394.82
2023-04-28T00:59:37.372Z,100388.95
2023-04-28T01:00:39.722Z,100388.95
2023-04-28T01:01:42.048Z,100392.58
2023-04-28T01:02:44.926Z,100389.47
2023-04-28T01:03:47.976Z,100401.72
2023-04-28T01:04:52.423Z,100401.72
2023-04-28T01:10:13.976Z,100414.84
2023-04-28T01:11:16.755Z,100402.34
2023-04-28T01:12:21.682Z,100409.86
2023-04-28T01:13:25.423Z,100410.63
2023-04-28T01:14:27.510Z,100403.13
2023-04-28T01:15:29.684Z,100403.91
2023-04-28T01:16:33.510Z,100411.41
2023-04-28T01:17:37.163Z,100413.83
2023-04-28T01:18:42.193Z,100413.13
2023-04-28T01:19:44.420Z,100410.80
2023-04-28T01:20:46.946Z,100406.05
2023-04-28T01:21:50.219Z,100409.24
2023-04-28T01:22:58.484Z,100413.98
2023-04-28T01:24:01.516Z,100409.67
2023-04-28T01:25:07.268Z,100412.43
2023-04-28T01:26:09.946Z,100409.67
2023-04-28T01:27:12.012Z,100409.24
2023-04-28T01:28:15.113Z,100409.24
2023-04-28T01:29:17.286Z,100412.43
2023-04-28T01:30:19.962Z,100406.13
2023-04-28T01:31:22.284Z,100412.43
2023-04-28T01:32:24.670Z,100406.48
2023-04-28T01:33:26.952Z,100416.31
2023-04-28T01:34:29.088Z,100413.13
2023-04-28T01:35:31.367Z,100413.91
2023-04-28T01:36:36.757Z,100418.22
2023-04-28T01:37:39.658Z,100413.47
2023-04-28T01:38:41.651Z,100415.45
2023-04-28T01:39:44.041Z,100418.22
2023-04-28T01:40:47.157Z,100405.63
2023-04-28T01:41:49.224Z,100411.14
2023-04-28T01:42:51.475Z,100415.89
2023-04-28T01:43:53.349Z,100414.33
2023-04-28T01:44:56.696Z,100413.98
2023-04-28T01:45:58.889Z,100423.47
2023-04-28T01:47:01.381Z,100416.40
2023-04-28T01:48:03.542Z,100425.89
2023-04-28T01:49:05.773Z,100411.73
2023-04-28T01:50:11.658Z,100417.26
2023-04-28T01:51:13.874Z,100423.98
2023-04-28T01:52:16.998Z,100421.22
2023-04-28T01:53:19.885Z,100418.46
2023-04-28T01:54:22.069Z,100415.70
2023-04-28T01:55:24.855Z,100409.75
2023-04-28T01:56:28.208Z,100412.94
2023-04-28T01:57:32.163Z,100409.83
2023-04-28T01:58:34.857Z,100410.61
2023-04-28T01:59:37.203Z,100400.80
2023-04-28T02:00:41.551Z,100398.05
2023-04-28T02:01:44.010Z,100406.33
2023-04-28T02:02:46.214Z,100398.05
2023-04-28T02:03:49.824Z,100400.02
2023-04-28T02:04:52.807Z,100402.78
2023-04-28T02:05:55.618Z,100402.01
2023-04-28T02:06:58.740Z,100407.08
2023-04-28T02:08:02.551Z,100409.52
2023-04-28T02:09:05.298Z,100406.75
2023-04-28T02:10:09.822Z,100404.77
2023-04-28T02:11:12.348Z,100406.33
2023-04-28T02:12:14.490Z,100410.61
2023-04-28T02:13:19.166Z,100410.18
2023-04-28T02:14:21.259Z,100407.42
2023-04-28T02:15:23.274Z,100414.50
2023-04-28T02:16:26.586Z,100418.46
2023-04-28T02:17:30.372Z,100416.91
2023-04-28T02:18:32.916Z,100419.67
2023-04-28T02:19:35.697Z,100422.89
2023-04-28T02:20:37.911Z,100417.02
2023-04-28T02:21:41.746Z,100416.67
2023-04-28T02:22:44.072Z,100420.28
2023-04-28T02:23:46.298Z,100426.66
2023-04-28T02:24:48.397Z,100432.18
2023-04-28T02:25:50.519Z,100427.09
2023-04-28T02:26:52.603Z,100422.77
2023-04-28T02:27:55.050Z,100421.99
2023-04-28T02:28:57.246Z,100425.53
2023-04-28T02:30:01.217Z,100431.48
2023-04-28T02:32:13.927Z,100430.89
2023-04-28T02:33:16.116Z,100430.78
2023-04-28T02:34:18.479Z,100423.38
2023-04-28T02:35:21.063Z,100425.79
2023-04-28T02:36:23.536Z,100428.98
2023-04-28T02:37:25.754Z,100422.69
2023-04-28T02:38:28.017Z,100431.39
2023-04-28T02:39:30.627Z,100431.81
2023-04-28T02:40:32.937Z,100413.34
2023-04-28T02:41:35.104Z,100425.16
2023-04-28T02:42:37.429Z,100427.58
2023-04-28T02:43:39.617Z,100432.73
2023-04-28T02:44:41.679Z,100427.64
2023-04-28T02:45:43.817Z,100426.87
2023-04-28T02:46:46.398Z,100434.37
2023-04-28T02:47:48.915Z,100431.61
2023-04-28T02:48:52.019Z,100433.62
2023-04-28T02:49:54.213Z,100430.08
2023-04-28T02:50:57.075Z,100428.95
2023-04-28T02:51:59.203Z,100439.20
2023-04-28T02:53:01.412Z,100435.67
2023-04-28T02:54:05.134Z,100432.91
2023-04-28T02:55:10.787Z,100433.77
2023-04-28T02:56:12.987Z,100437.72
2023-04-28T02:57:15.263Z,100428.32
2023-04-28T02:58:17.325Z,100439.35
2023-04-28T02:59:20.146Z,100434.69
2023-04-28T03:00:23.660Z,100435.95
2023-04-28T03:01:26.308Z,100439.95
2023-04-28T03:02:28.654Z,100438.39
2023-04-28T03:03:32.055Z,100440.37
2023-04-28T03:04:34.705Z,100444.33
2023-04-28T03:05:37.211Z,100444.33
2023-04-28T03:06:39.609Z,100444.75
2023-04-28T03:07:41.892Z,100445.95
2023-04-28T03:08:45.664Z,100458.19
2023-04-28T03:09:48.017Z,100452.67
2023-04-28T03:10:50.553Z,100457.41
2023-04-28T03:11:52.539Z,100461.72
2023-04-28T03:12:54.840Z,100463.34
2023-04-28T03:13:57.819Z,100462.99
2023-04-28T03:17:34.820Z,100463.41
2023-04-28T03:18:37.352Z,100472.47
2023-04-28T03:19:39.467Z,100472.47
2023-04-28T03:20:42.385Z,100480.73
2023-04-28T03:21:44.907Z,100484.70
2023-04-28T03:22:48.467Z,100480.38
2023-04-28T03:23:51.713Z,100487.87
2023-04-28T03:24:53.744Z,100483.98
2023-04-28T03:25:56.075Z,100490.27
2023-04-28T03:26:59.455Z,100497.77
2023-04-28T03:28:02.463Z,100498.19
2023-04-28T03:29:04.711Z,100496.63
2023-04-28T03:30:11.271Z,100494.33
2023-04-28T03:31:13.348Z,100501.04
2023-04-28T03:32:16.011Z,100494.39
2023-04-28T03:33:18.576Z,100494.81
2023-04-28T03:34:20.601Z,100490.50
2023-04-28T03:35:22.798Z,100499.97
2023-04-28T03:36:25.270Z,100500.75
2023-04-28T03:37:27.420Z,100499.55
2023-04-28T03:38:29.733Z,100499.97
2023-04-28T03:39:32.020Z,100502.72
2023-04-28T03:40:34.370Z,100503.56
2023-04-28T03:41:38.453Z,100509.08
2023-04-28T03:42:42.555Z,100508.72
2023-04-28T03:43:46.469Z,100505.96
2023-04-28T03:44:59.274Z,100514.23
2023-04-28T03:46:01.580Z,100510.28
2023-04-28T03:47:04.395Z,100508.30
2023-04-28T03:48:09.668Z,100510.28
2023-04-28T03:49:11.966Z,100506.32
2023-04-28T03:50:14.564Z,100516.15
2023-04-28T03:51:17.896Z,100515.37
2023-04-28T03:52:20.278Z,100519.27
2023-04-28T03:53:22.599Z,100520.04
2023-04-28T03:54:24.808Z,100518.06
2023-04-28T03:55:26.927Z,100508.59
2023-04-28T03:56:30.039Z,100518.00
2023-04-28T03:57:32.748Z,100521.53
2023-04-28T03:58:34.920Z,100512.84
2023-04-28T03:59:37.039Z,100517.94
2023-04-28T04:00:39.747Z,100520.25
2023-04-28T04:01:41.853Z,100522.67
2023-04-28T04:02:44.366Z,100529.30
2023-04-28T04:03:47.138Z,100520.25
2023-04-28T04:04:49.852Z,100519.47
2023-04-28T04:05:52.810Z,100526.54
2023-04-28T04:06:56.423Z,100526.54
2023-04-28T04:08:00.429Z,100528.45
2023-04-28T04:09:02.543Z,100530.02
2023-04-28T04:10:07.704Z,100530.37
2023-04-28T04:11:10.188Z,100527.97
2023-04-28T04:12:12.375Z,100518.50
2023-04-28T04:13:14.531Z,100522.81
2023-04-28T04:14:18.182Z,100522.81
2023-04-28T04:15:21.050Z,100531.09
2023-04-28T04:16:23.990Z,100520.84
2023-04-28T04:17:28.042Z,100533.84
2023-04-28T04:18:30.431Z,100527.91
2023-04-28T04:19:37.295Z,100527.84
2023-04-28T04:20:40.101Z,100535.24
2023-04-28T04:21:42.520Z,100534.75
2023-04-28T04:22:44.714Z,100531.94
2023-04-28T04:23:46.992Z,100534.20
2023-04-28T04:24:49.265Z,100538.09
2023-04-28T04:28:28.867Z,100531.70
2023-04-28T04:29:32.398Z,100533.26
2023-04-28T04:30:36.629Z,100539.55
2023-04-28T04:31:40.430Z,100540.27
2023-04-28T04:32:42.954Z,100531.49
2023-04-28T04:33:45.842Z,100542.81
2023-04-28T04:34:48.187Z,100533.77
2023-04-28T04:35:50.532Z,100538.50
2023-04-28T04:36:53.876Z,100541.27
2023-04-28T04:37:56.227Z,100535.74
2023-04-28T04:38:59.284Z,100548.23
2023-04-28T04:40:02.388Z,100541.16
2023-04-28T04:41:06.509Z,100547.14
2023-04-28T04:42:23.365Z,100545.58
2023-04-28T04:43:15.080Z,100545.93
2023-04-28T04:44:19.415Z,100548.23
2023-04-28T04:45:23.141Z,100545.93
2023-04-28T04:46:27.009Z,100543.92
2023-04-28T04:47:29.653Z,100548.17
2023-04-28T04:48:32.497Z,100536.92
2023-04-28T04:49:34.675Z,100543.39
2023-04-28T04:50:41.072Z,100533.41
2023-04-28T04:51:43.469Z,100538.50
2023-04-28T04:52:45.717Z,100546.70
2023-04-28T04:53:47.880Z,100541.08
2023-04-28T04:54:50.588Z,100553.18
2023-04-28T04:55:54.189Z,100540.50
2023-04-28T04:56:58.030Z,100544.47
2023-04-28T04:58:01.958Z,100548.86
2023-04-28T04:59:22.406Z,100541.00
2023-04-28T05:00:26.764Z,100539.45
2023-04-28T05:01:30.297Z,100542.28
2023-04-28T05:02:33.721Z,100550.67
2023-04-28T05:03:36.868Z,100547.91
2023-04-28T05:04:40.364Z,100541.97
2023-04-28T05:05:46.075Z,100547.38
2023-04-28T05:06:50.714Z,100550.57
2023-04-28T05:07:53.159Z,100560.94
2023-04-28T05:08:56.636Z,100549.12
2023-04-28T05:10:00.352Z,100545.23
2023-04-28T05:11:02.547Z,100547.98
2023-04-28T05:12:08.137Z,100554.64
2023-04-28T05:13:10.278Z,100549.55
2023-04-28T05:14:13.410Z,100548.69
2023-04-28T05:15:19.409Z,100548.59
2023-04-28T05:16:23.549Z,100549.29
2023-04-28T05:17:37.644Z,100549.29
2023-04-28T05:18:39.897Z,100555.59
2023-04-28T05:19:42.111Z,100555.23
2023-04-28T05:20:44.715Z,100546.53
2023-04-28T05:21:47.658Z,100553.61
2023-04-28T05:22:51.205Z,100552.05
2023-04-28T05:23:53.444Z,100552.13
2023-04-28T05:24:55.519Z,100548.59
2023-04-28T05:25:57.741Z,100548.52
2023-04-28T05:27:01.067Z,100556.72
2023-04-28T05:28:03.897Z,100553.53
2023-04-28T05:29:06.108Z,100555.02
2023-04-28T05:30:11.676Z,100560.53
2023-04-28T05:31:13.860Z,100556.92
2023-04-28T05:32:15.976Z,100562.77
2023-04-28T05:33:19.274Z,100560.46
2023-04-28T05:34:25.607Z,100558.80
2023-04-28T05:35:27.890Z,100558.80
2023-04-28T05:36:30.014Z,100560.00
2023-04-28T05:37:32.307Z,100563.11
2023-04-28T05:38:34.555Z,100561.12
2023-04-28T05:39:36.764Z,100564.97
2023-04-28T05:40:40.253Z,100570.77
2023-04-28T05:41:43.783Z,100567.47
2023-04-28T05:42:47.540Z,100562.64
2023-04-28T05:43:49.842Z,100556.52
2023-04-28T05:44:52.369Z,100560.22
2023-04-28T05:45:54.757Z,100559.70
2023-04-28T05:46:57.790Z,100559.11
2023-04-28T05:48:01.948Z,100557.44
2023-04-28T05:49:06.360Z,100562.87
2023-04-28T05:50:10.516Z,100556.40
2023-04-28T05:51:13.302Z,100554.67
2023-04-28T05:52:15.700Z,100554.80
2023-04-28T05:53:18.301Z,100557.05
2023-04-28T05:54:20.430Z,100563.92
2023-04-28T05:55:24.149Z,100558.20
2023-04-28T05:56:27.106Z,100554.05
2023-04-28T05:57:33.922Z,100558.92
2023-04-28T05:58:35.107Z,100565.48
2023-04-28T05:59:37.980Z,100554.75
2023-04-28T06:00:39.957Z,100559.29
2023-04-28T06:01:42.210Z,100563.85
2023-04-28T06:02:44.660Z,100561.66
2023-04-28T06:03:47.584Z,100551.14
2023-04-28T06:04:50.625Z,100555.70
2023-04-28T06:05:53.537Z,100544.63
2023-04-28T06:06:56.242Z,100544.95
2023-04-28T06:07:58.380Z,100542.52
2023-04-28T06:09:00.597Z,100550.73
2023-04-28T06:10:05.906Z,100537.52
2023-04-28T06:11:08.037Z,100538.53
2023-04-28T06:12:12.011Z,100539.54
2023-04-28T06:13:15.831Z,100544.09
2023-04-28T06:14:18.151Z,100537.45
2023-04-28T06:15:20.655Z,100543.66
2023-04-28T06:16:24.464Z,100544.64
2023-04-28T06:17:27.301Z,100542.42
2023-04-28T06:18:30.385Z,100538.21
2023-04-28T06:19:32.569Z,100550.27
2023-04-28T06:20:35.213Z,100546.16
2023-04-28T06:21:37.285Z,100538.17
2023-04-28T06:22:41.242Z,100544.38
2023-04-28T06:23:43.542Z,100543.49
2023-04-28T06:24:45.712Z,100542.02
2023-04-28T06:25:50.765Z,100555.65
2023-04-28T06:26:55.391Z,100541.19
2023-04-28T06:27:57.807Z,100559.27
2023-04-28T06:29:00.605Z,100540.62
2023-04-28T06:30:09.450Z,100551.48
2023-04-28T06:31:11.949Z,100552.14
2023-04-28T06:32:15.760Z,100574.84
2023-04-28T06:33:18.231Z,100550.53
2023-04-28T06:34:20.791Z,100563.50
2023-04-28T06:35:22.994Z,100542.98
2023-04-28T06:36:25.070Z,100558.20
2023-04-28T06:37:27.177Z,100558.77
2023-04-28T06:38:29.716Z,100565.03
2023-04-28T06:39:31.842Z,100557.48
2023-04-28T06:40:34.354Z,100553.81
2023-04-28T06:41:39.224Z,100572.64
2023-04-28T06:42:42.626Z,100562.47
2023-04-28T06:44:08.444Z,100558.58
2023-04-28T06:45:11.266Z,100562.58
2023-04-28T06:46:13.532Z,100570.36
2023-04-28T06:47:17.693Z,100562.81
2023-04-28T06:48:19.679Z,100564.37
2023-04-28T06:49:21.784Z,100559.59
2023-04-28T06:50:24.138Z,100559.48
2023-04-28T06:51:26.446Z,100564.13
2023-04-28T06:52:38.459Z,100568.45
2023-04-28T06:53:35.001Z,100558.02
2023-04-28T06:54:37.091Z,100569.30
2023-04-28T06:55:42.572Z,100578.73
2023-04-28T06:56:44.959Z,100574.28
2023-04-28T06:57:47.041Z,100570.61
2023-04-28T06:58:50.138Z,100584.48
2023-04-28T06:59:52.315Z,100577.27
2023-04-28T07:00:54.882Z,100580.04
2023-04-28T07:01:57.386Z,100568.94
2023-04-28T07:03:00.269Z,100565.72
2023-04-28T07:04:03.143Z,100569.56
2023-04-28T07:05:09.437Z,100560.61
2023-04-28T07:06:11.668Z,100570.04
2023-04-28T07:07:13.680Z,100569.56
2023-04-28T07:08:15.884Z,100568.22
2023-04-28T07:09:18.007Z,100578.42
2023-04-28T07:10:20.185Z,100574.30
2023-04-28T07:11:22.304Z,100584.50
2023-04-28T07:12:24.637Z,100569.73
2023-04-28T07:13:27.063Z,100569.13
2023-04-28T07:14:29.468Z,100568.55
2023-04-28T07:15:31.688Z,100583.98
2023-04-28T07:16:33.940Z,100575.65
2023-04-28T07:17:37.406Z,100578.42
2023-04-28T07:18:39.681Z,100578.75
2023-04-28T07:19:41.959Z,100571.20
2023-04-28T07:20:44.053Z,100580.95
2023-04-28T07:21:46.308Z,100584.50
2023-04-28T07:22:48.394Z,100591.28
2023-04-28T07:23:50.654Z,100575.07
2023-04-28T07:24:52.781Z,100578.17
2023-04-28T07:25:55.239Z,100588.51
2023-04-28T07:26:57.736Z,100582.95
2023-04-28T07:28:02.854Z,100589.41
2023-04-28T07:29:06.087Z,100587.86
2023-04-28T07:30:26.722Z,100588.76
2023-04-28T07:31:17.804Z,100603.75
2023-04-28T07:32:19.871Z,100601.55
2023-04-28T07:33:21.917Z,100599.87
2023-04-28T07:34:24.002Z,100595.09
2023-04-28T07:35:26.324Z,100600.97
2023-04-28T07:36:28.593Z,100589.86
2023-04-28T07:37:31.263Z,100595.14
2023-04-28T07:38:35.136Z,100585.48
2023-04-28T07:39:37.504Z,100590.45
2023-04-28T07:40:41.621Z,100585.09
2023-04-28T07:41:43.764Z,100585.27
2023-04-28T07:42:45.993Z,100580.80
2023-04-28T07:43:48.357Z,100586.09
2023-04-28T07:44:50.539Z,100586.13
2023-04-28T07:45:52.592Z,100583.41
2023-04-28T07:46:55.391Z,100602.59
2023-04-28T07:47:57.652Z,100612.48
2023-04-28T07:49:01.841Z,100601.18
2023-04-28T07:50:06.511Z,100587.68
2023-04-28T07:51:08.727Z,100594.30
2023-04-28T07:52:10.950Z,100592.75
2023-04-28T07:53:13.080Z,100596.95
2023-04-28T07:54:15.637Z,100594.47
2023-04-28T07:55:18.301Z,100585.84
2023-04-28T07:56:20.406Z,100582.28
2023-04-28T07:57:22.665Z,100591.39
2023-04-28T07:58:24.878Z,100587.68
2023-04-28T07:59:26.933Z,100590.78
2023-04-28T08:00:29.722Z,100576.75
2023-04-28T08:01:31.822Z,100587.41
2023-04-28T08:02:33.983Z,100582.63
2023-04-28T08:03:36.753Z,100589.74
2023-04-28T08:04:39.767Z,100579.98
2023-04-28T08:05:42.517Z,100578.44
2023-04-28T08:06:44.664Z,100584.63
2023-04-28T08:07:47.090Z,100587.28
2023-04-28T08:08:49.344Z,100588.05
2023-04-28T08:09:53.285Z,100584.50
2023-04-28T08:10:55.572Z,100587.28
2023-04-28T08:11:58.983Z,100585.41
2023-04-28T08:13:03.889Z,100583.53
2023-04-28T08:14:06.250Z,100586.77
2023-04-28T08:15:09.291Z,100601.45
2023-04-28T08:16:11.827Z,100590.45
2023-04-28T08:17:14.029Z,100590.00
2023-04-28T08:18:17.452Z,100580.76
2023-04-28T08:19:19.823Z,100581.72
2023-04-28T08:20:24.434Z,100588.38
2023-04-28T08:21:26.518Z,100589.61
2023-04-28T08:22:28.520Z,100595.48
2023-04-28T08:23:30.825Z,100594.55
2023-04-28T08:24:33.510Z,100584.07
2023-04-28T08:25:35.607Z,100593.95
2023-04-28T08:26:38.252Z,100589.49
2023-04-28T08:27:40.398Z,100576.69
2023-04-28T08:28:42.713Z,100586.13
2023-04-28T08:29:44.973Z,100600.34
2023-04-28T08:30:47.257Z,100593.88
2023-04-28T08:31:49.544Z,100586.59
2023-04-28T08:32:52.253Z,100599.27
2023-04-28T08:33:55.632Z,100582.13
2023-04-28T08:34:58.497Z,100582.44
2023-04-28T08:38:35.022Z,100599.63
2023-04-28T08:39:37.236Z,100587.59
2023-04-28T08:40:42.129Z,100588.65
2023-04-28T08:41:44.358Z,100581.39
2023-04-28T08:42:46.582Z,100576.78
2023-04-28T08:43:48.864Z,100590.55
2023-04-28T08:44:50.955Z,100586.39
2023-04-28T08:45:54.312Z,100587.62
2023-04-28T08:46:56.545Z,100580.52
2023-04-28T08:47:59.057Z,100577.73
2023-04-28T08:49:01.401Z,100572.80
2023-04-28T08:50:04.961Z,100594.11
2023-04-28T08:51:07.638Z,100585.30
2023-04-28T08:53:25.180Z,100601.08
2023-04-28T08:55:38.961Z,100590.87
2023-04-28T08:56:41.399Z,100588.83
2023-04-28T08:57:45.374Z,100589.60
2023-04-28T08:58:47.622Z,100596.72
2023-04-28T08:59:49.646Z,100590.38
2023-04-28T09:00:52.759Z,100597.77
2023-04-28T09:01:55.037Z,100605.83
2023-04-28T09:02:58.018Z,100588.50
2023-04-28T09:04:04.209Z,100601.18
2023-04-28T09:05:11.024Z,100591.92
2023-04-28T09:06:13.659Z,100596.54
2023-04-28T09:07:15.897Z,100580.48
2023-04-28T09:08:17.990Z,100581.11
2023-04-28T09:09:23.933Z,100586.08
2023-04-28T09:10:27.874Z,100581.89
2023-04-28T09:11:30.057Z,100590.73
2023-04-28T09:12:38.557Z,100593.68
2023-04-28T09:13:41.508Z,100591.98
2023-04-28T09:14:43.914Z,100578.84
2023-04-28T09:15:46.103Z,100581.45
2023-04-28T09:16:48.779Z,100586.30
2023-04-28T09:17:51.840Z,100592.64
2023-04-28T09:18:56.794Z,100583.63
2023-04-28T09:19:59.812Z,100584.86
2023-04-28T09:23:21.649Z,100580.37
2023-04-28T09:24:37.169Z,100587.62
2023-04-28T09:25:39.462Z,100603.05
2023-04-28T09:26:48.987Z,100597.00
2023-04-28T09:27:51.150Z,100581.84
2023-04-28T09:28:53.266Z,100605.19
2023-04-28T09:29:55.661Z,100598.72
2023-04-28T09:30:58.930Z,100598.55
2023-04-28T09:32:19.228Z,100600.73
2023-04-28T09:33:21.663Z,100595.02
2023-04-28T09:34:25.619Z,100609.25
2023-04-28T09:35:41.714Z,100600.87
2023-04-28T09:36:44.113Z,100594.06
2023-04-28T09:37:46.367Z,100603.19
2023-04-28T09:38:48.500Z,100594.20
2023-04-28T09:39:51.639Z,100585.27
2023-04-28T09:41:01.326Z,100597.77
2023-04-28T09:42:03.682Z,100574.73
2023-04-28T09:43:15.307Z,100588.83
2023-04-28T09:45:30.415Z,100572.63
2023-04-28T09:46:32.276Z,100579.11
2023-04-28T09:48:47.135Z,100573.25
2023-04-28T09:49:56.196Z,100569.06
2023-04-28T09:51:00.503Z,100574.80
2023-04-28T09:52:12.742Z,100580.54
2023-04-28T09:53:15.045Z,100578.86
2023-04-28T09:54:17.210Z,100582.44
2023-04-28T09:55:21.288Z,100587.37
2023-04-28T09:56:23.503Z,100578.09
2023-04-28T09:57:25.729Z,100573.14
2023-04-28T09:58:28.788Z,100579.48
2023-04-28T09:59:31.245Z,100590.92
2023-04-28T10:00:33.952Z,100572.49
2023-04-28T10:01:37.933Z,100585.01
2023-04-28T10:02:44.078Z,100582.09
2023-04-28T10:03:44.359Z,100577.30
2023-04-28T10:04:48.707Z,100575.88
2023-04-28T10:05:51.420Z,100571.91
2023-04-28T10:06:53.520Z,100574.99
2023-04-28T10:07:55.517Z,100564.48
2023-04-28T10:08:57.720Z,100580.87
2023-04-28T10:10:00.048Z,100575.73
2023-04-28T10:11:02.357Z,100596.32
2023-04-28T10:12:05.585Z,100599.13
2023-04-28T10:13:07.769Z,100602.38
2023-04-28T10:14:09.980Z,100576.09
2023-04-28T10:15:12.450Z,100579.64
2023-04-28T10:16:14.816Z,100585.82
2023-04-28T10:17:17.386Z,100586.13
2023-04-28T10:18:19.382Z,100575.77
2023-04-28T10:19:21.831Z,100581.04
2023-04-28T10:20:24.609Z,100585.53
2023-04-28T10:21:27.927Z,100578.10
2023-04-28T10:24:15.424Z,100578.08
2023-04-28T10:28:13.187Z,100558.89
2023-04-28T10:29:15.306Z,100568.82
2023-04-28T10:30:27.421Z,100557.37
2023-04-28T10:31:25.586Z,100568.05
2023-04-28T10:32:27.672Z,100568.05
2023-04-28T10:33:30.206Z,100567.09
2023-04-28T10:34:33.017Z,100567.09
2023-04-28T10:35:44.806Z,100578.70
2023-04-28T10:36:49.921Z,100573.26
2023-04-28T10:38:16.145Z,100576.04
2023-04-28T10:39:18.517Z,100585.79
2023-04-28T10:40:39.431Z,100572.78
2023-04-28T10:41:41.860Z,100575.89
2023-04-28T10:44:23.820Z,100566.91
2023-04-28T10:45:57.092Z,100580.09
2023-04-28T10:47:02.431Z,100578.72
2023-04-28T10:48:05.818Z,100579.78
2023-04-28T10:49:07.923Z,100577.45
2023-04-28T10:50:11.349Z,100587.05
2023-04-28T10:51:20.221Z,100576.84
2023-04-28T10:52:47.570Z,100578.98
2023-04-28T10:53:53.355Z,100578.20
2023-04-28T10:55:28.152Z,100573.88
2023-04-28T10:56:31.032Z,100569.84
2023-04-28T10:57:33.272Z,100568.56
2023-04-28T10:58:35.365Z,100565.45
2023-04-28T10:59:37.577Z,100565.57
2023-04-28T11:00:43.739Z,100564.22
2023-04-28T11:01:45.979Z,100561.28
2023-04-28T11:02:48.837Z,100573.98
2023-04-28T11:03:58.186Z,100581.42
2023-04-28T11:05:12.062Z,100571.34
2023-04-28T11:12:20.999Z,100577.88
2023-04-28T11:13:27.663Z,100584.30
2023-04-28T11:14:32.670Z,100584.62
2023-04-28T11:15:35.553Z,100586.98
2023-04-28T11:16:59.012Z,100583.00
2023-04-28T11:18:01.480Z,100581.77
2023-04-28T11:19:05.211Z,100579.63
2023-04-28T11:20:12.420Z,100562.77
2023-04-28T11:21:14.851Z,100563.38
2023-04-28T11:22:19.620Z,100566.32
2023-04-28T11:23:22.093Z,100563.69
2023-04-28T11:24:24.785Z,100563.53
2023-04-28T11:25:26.999Z,100552.39
2023-04-28T11:26:29.322Z,100561.22
2023-04-28T11:27:32.310Z,100561.64
2023-04-28T11:28:34.573Z,100558.85
2023-04-28T11:29:40.418Z,100558.34
2023-04-28T11:30:42.946Z,100567.59
2023-04-28T11:31:51.051Z,100562.13
2023-04-28T11:32:53.668Z,100567.19
2023-04-28T11:34:11.351Z,100558.35
2023-04-28T11:35:13.801Z,100573.07
2023-04-28T11:36:24.677Z,100556.47
2023-04-28T11:37:26.958Z,100565.50
2023-04-28T11:38:29.105Z,100555.95
2023-04-28T11:39:32.311Z,100555.17
2023-04-28T11:40:36.426Z,100548.05
2023-04-28T11:41:41.435Z,100550.20
2023-04-28T11:42:48.072Z,100561.66
2023-04-28T11:43:50.418Z,100563.86
2023-04-28T11:44:53.252Z,100555.85
2023-04-28T11:45:55.517Z,100566.55
2023-04-28T11:47:00.541Z,100556.02
2023-04-28T11:48:10.042Z,100559.69
2023-04-28T11:49:13.735Z,100555.17
2023-04-28T11:50:15.980Z,100550.76
2023-04-28T11:51:32.108Z,100549.31
2023-04-28T11:52:35.512Z,100544.77
2023-04-28T11:55:12.333Z,100536.63
2023-04-28T11:56:16.509Z,100547.56
2023-04-28T11:57:21.517Z,100560.77
2023-04-28T11:58:23.849Z,100554.29
2023-04-28T11:59:27.838Z,100545.92
2023-04-28T12:00:32.842Z,100557.08
2023-04-28T12:01:47.287Z,100552.47
2023-04-28T12:02:49.830Z,100549.20
2023-04-28T12:03:53.284Z,100551.86
2023-04-28T12:04:55.531Z,100532.53
2023-04-28T12:05:58.039Z,100535.19
2023-04-28T12:07:02.912Z,100533.64
2023-04-28T12:08:05.166Z,100534.25
2023-04-28T12:09:19.251Z,100537.81
2023-04-28T12:10:22.433Z,100524.75
2023-04-28T12:11:25.748Z,100522.55
2023-04-28T12:12:39.984Z,100532.23
2023-04-28T12:13:33.151Z,100534.38
2023-04-28T12:14:58.912Z,100556.88
2023-04-28T12:16:01.437Z,100518.28
2023-04-28T12:17:03.706Z,100519.96
2023-04-28T12:18:09.880Z,100527.48
2023-04-28T12:19:12.572Z,100521.13
2023-04-28T12:21:43.124Z,100529.38
2023-04-28T12:22:47.299Z,100537.05
2023-04-28T12:23:49.636Z,100540.38
2023-04-28T12:25:11.680Z,100535.09
2023-04-28T12:26:15.052Z,100530.77
2023-04-28T12:27:18.804Z,100537.89
2023-04-28T12:28:21.269Z,100541.45
2023-04-28T12:29:38.258Z,100540.23
2023-04-28T12:30:40.628Z,100542.30
2023-04-28T12:31:49.887Z,100538.47
2023-04-28T12:32:52.421Z,100553.84
2023-04-28T12:33:55.570Z,100541.47
2023-04-28T12:34:57.629Z,100531.10
2023-04-28T12:35:59.871Z,100528.92
2023-04-28T12:37:02.888Z,100538.52
2023-04-28T12:38:05.890Z,100529.02
2023-04-28T12:39:11.781Z,100533.64
2023-04-28T12:40:14.243Z,100540.54
2023-04-28T12:41:16.233Z,100547.80
2023-04-28T12:42:18.360Z,100528.14